ADDS METAR Data INFO
IDs: Format: Raw Decoded Include TAF

Data at: 2351 UTC 24 Feb 2018

KHRX 242335Z AUTO 28012KT 10SM CLR 12/M19 A2990 RMK AO2 T01201187
KHRX 242315Z AUTO 26011G18KT 10SM CLR 12/M18 A2989 RMK AO2 T01231176
KHRX 242255Z AUTO 28017G22KT 10SM CLR 13/M18 A2989 RMK AO2 T01261178
KHRX 242235Z AUTO 27016G23KT 10SM CLR 13/M19 A2988 RMK AO2 T01261193
KHRX 242215Z AUTO 32015G22KT 10SM CLR 13/M20 A2988 RMK AO2 T01281203
KHRX 242155Z AUTO 30023G26KT 10SM CLR 13/M21 A2988 RMK AO2 T01261207
KHRX 242140Z AUTO 29019G26KT 10SM CLR 13/M20 A2988 RMK AO2 T01291197
KHRX 242115Z AUTO 31020G26KT 10SM CLR 13/M18 A2987 RMK AO2 T01261184
KHRX 242055Z AUTO 31024G28KT 10SM CLR 12/M19 A2988 RMK AO2 T01241188
KHRX 242035Z AUTO 31020G26KT 10SM CLR 12/M18 A2988 RMK AO2 T01231177
KHRX 242015Z AUTO 29023G30KT 10SM CLR 13/M17 A2988 RMK AO2 T01251166
KHRX 241955Z AUTO 30019G30KT 10SM CLR 12/M16 A2988 RMK AO2 T01241163
KHRX 241935Z AUTO 30021G35KT 10SM CLR 13/M15 A2988 RMK AO2 T01251150
KHRX 241915Z AUTO 30026G32KT 10SM CLR 12/M16 A2989 RMK AO2 T01221160
KHRX 241855Z AUTO 30019G28KT 10SM CLR 12/M18 A2989 RMK AO2 T01211176
KHRX 241835Z AUTO 30025G33KT 10SM CLR 12/M17 A2989 RMK AO2 T01201175
KHRX 241815Z AUTO 29024G36KT 10SM CLR 12/M16 A2990 RMK AO2 T01181159
KHRX 241755Z AUTO 28027G33KT 10SM CLR 11/M14 A2991 RMK AO2 T01141138 10115 20010
KHRX 241735Z AUTO 27027G35KT 10SM CLR 11/M12 A2991 RMK AO2 T01111121
KHRX 241715Z AUTO 28029G37KT 10SM CLR 11/M12 A2991 RMK AO2 T01051120
KHRX 241655Z AUTO 27029G35KT 10SM CLR 11/M11 A2990 RMK AO2 T01081113
KHRX 241635Z AUTO 26027G33KT 10SM CLR 11/M12 A2990 RMK AO2 T01051125
KHRX 241615Z AUTO 27026G33KT 10SM CLR 10/M12 A2990 RMK AO2 T01021116
KHRX 241555Z AUTO 27025G32KT 10SM CLR 10/M10 A2989 RMK AO2 T01011105
KHRX 241535Z AUTO 28024G27KT 10SM CLR 09/M09 A2990 RMK AO2 T00911094
KHRX 241515Z AUTO 28014G17KT 10SM CLR 06/M04 A2990 RMK AO2 T00611041
KHRX 241455Z AUTO 27009KT 10SM CLR 04/M04 A2990 RMK AO2 T00351042
KHRX 241435Z AUTO 27008KT 10SM CLR 03/M04 A2989 RMK AO2 T00271043
KHRX 241415Z AUTO 27009KT 10SM CLR 02/M04 A2988 RMK AO2 T00181040
KHRX 241355Z AUTO 27009KT 10SM CLR 01/M04 A2988 RMK AO2 T00101037
KHRX 241335Z AUTO 28011KT 7SM CLR 01/M03 A2987 RMK AO2 T00101034
KHRX 241315Z AUTO 28010KT 10SM CLR 02/M02 A2986 RMK AO2 T00161023
KHRX 241255Z AUTO 28011KT 10SM CLR 03/M01 A2986 RMK AO2 T00271007
KHRX 241235Z AUTO 27010KT 10SM CLR 04/01 A2986 RMK AO2 T00400013
KHRX 241215Z AUTO 26012KT 10SM CLR 06/04 A2986 RMK AO2 T00570035
KHRX 241155Z AUTO 26012KT 7SM CLR 07/05 A2985 RMK AO2 T00690051 10085 20051
KHRX 241135Z AUTO 24012KT 7SM CLR 08/06 A2984 RMK AO2 T00760061
KHRX 241115Z AUTO 24013KT 7SM CLR 09/07 A2984 RMK AO2 T00850069
KHRX 241055Z AUTO 23014KT 10SM CLR 08/07 A2984 RMK AO2 T00840069
KHRX 241035Z AUTO 21015G20KT 10SM CLR 08/07 A2983 RMK AO2 T00820067
KHRX 241015Z AUTO 21013G20KT 10SM CLR 08/07 A2982 RMK AO2 T00810066
KHRX 240955Z AUTO 21013G17KT 10SM CLR 08/07 A2983 RMK AO2 T00800065
KHRX 240935Z AUTO 21014G23KT 10SM BKN006 08/07 A2984 RMK AO2 T00800067
KHRX 240915Z AUTO 20017G25KT 7SM OVC004 08/07 A2984 RMK AO2 T00750070
KHRX 240855Z AUTO 20017G26KT 10SM OVC004 07/07 A2984 RMK AO2 T00700065
KHRX 240835Z AUTO 19021G30KT 10SM OVC004 07/06 A2984 RMK AO2 T00670063
KHRX 240815Z AUTO 19018G24KT 7SM OVC004 07/06 A2984 RMK AO2 T00660063
KHRX 240755Z AUTO 18017G23KT 7SM OVC002 07/06 A2985 RMK AO2 T00650062
KHRX 240735Z AUTO 18013KT 5SM BR OVC002 06/06 A2986 RMK AO2 T00610060
KHRX 240715Z AUTO 17009G14KT 5SM BR OVC002 06/06 A2988 RMK AO2 T00600058
KHRX 240700Z AUTO 18008KT 4SM BR OVC002 06/06 A2988 RMK AO2 T00600058
KHRX 240635Z AUTO 17008KT 2SM BR OVC002 06/06 A2989 RMK AO2 T00590057
KHRX 240615Z AUTO 17010KT 1 3/4SM BR OVC002 06/06 A2989 RMK AO2 T00560055
KHRX 240555Z AUTO 17011KT 1 1/4SM BR OVC002 05/05 A2990 RMK AO2 T00500049 10125 20040
KHRX 240535Z AUTO 16011KT 1 1/4SM BR OVC002 05/04 A2991 RMK AO2 T00450040
KHRX 240515Z AUTO 17012G20KT 4SM BR OVC002 04/04 A2991 RMK AO2 T00410035
KHRX 240455Z AUTO 17016G21KT 4SM BR OVC002 04/04 A2991 RMK AO2 T00410035
KHRX 240435Z AUTO 17015KT 5SM BR OVC002 04/04 A2991 RMK AO2 T00410035
KHRX 240415Z AUTO 16013KT 5SM BR OVC004 04/04 A2991 RMK AO2 T00420035
KHRX 240355Z AUTO 15013KT 7SM OVC004 04/04 A2992 RMK AO2 T00440035
KHRX 240335Z AUTO 15015G19KT 7SM OVC004 05/04 A2993 RMK AO2 T00460035
KHRX 240315Z AUTO 16017G21KT 7SM BKN006 05/04 A2993 RMK AO2 T00490036
KHRX 240255Z AUTO 15012KT 10SM BKN006 05/04 A2993 RMK AO2 T00530040
KHRX 240235Z AUTO 15012KT 10SM SCT006 06/04 A2993 RMK AO2 T00550042
KHRX 240215Z AUTO 15009KT 10SM CLR 06/04 A2993 RMK AO2 T00550035
KHRX 240155Z AUTO 14013KT 10SM CLR 07/04 A2993 RMK AO2 T00650041
KHRX 240135Z AUTO 13008KT 10SM CLR 07/04 A2993 RMK AO2 T00670038
KHRX 240115Z AUTO 12006G10KT 10SM CLR 09/04 A2992 RMK AO2 T00850043
KHRX 240055Z AUTO 14010KT 10SM CLR 09/04 A2992 RMK AO2 T00910043
KHRX 240035Z AUTO 15013KT 10SM CLR 10/04 A2991 RMK AO2 T01010043
KHRX 240015Z AUTO 15014G20KT 10SM CLR 11/04 A2991 RMK AO2 T01140043
KHRX 232355Z AUTO 16014KT 10SM CLR 13/04 A2991 RMK AO2 T01250038
KHRX 232335Z AUTO 15016G22KT 10SM CLR 13/03 A2991 RMK AO2 T01310032
KHRX 232315Z AUTO 14018G24KT 10SM CLR 14/03 A2990 RMK AO2 T01370028
KHRX 232255Z AUTO 14020KT 10SM CLR 15/03 A2990 RMK AO2 LTG DSNT E T01470030
KHRX 232235Z AUTO 14022G26KT 10SM CLR 15/03 A2991 RMK AO2 T01540027
KHRX 232215Z AUTO 13022G28KT 10SM CLR 16/02 A2991 RMK AO2 T01630020
KHRX 232155Z AUTO 14019G24KT 10SM CLR 17/01 A2991 RMK AO2 T01700010
KHRX 232135Z AUTO 15017G20KT 10SM CLR 19/00 A2992 RMK AO2 T01940000
KHRX 232115Z AUTO 17010G21KT 10SM CLR 19/M04 A2993 RMK AO2 T01931042
KHRX 232055Z AUTO 19015G19KT 10SM CLR 20/M05 A2994 RMK AO2 T01951047
KHRX 232035Z AUTO 17011G16KT 10SM CLR 19/M05 A2995 RMK AO2 T01911054
KHRX 232015Z AUTO 18012G15KT 10SM CLR 19/M05 A2997 RMK AO2 T01871049
KHRX 231955Z AUTO 17011G19KT 10SM CLR 19/M05 A2999 RMK AO2 LTG DSNT E T01851048
KHRX 231940Z AUTO 17008G16KT 10SM CLR 18/M05 A3000 RMK AO2 T01841048
KHRX 231915Z AUTO 17006G14KT 10SM CLR 18/M05 A3003 RMK AO2 LTG DSNT E T01781050
KHRX 231855Z AUTO 17008KT 10SM CLR 17/M05 A3004 RMK AO2 T01711046
KHRX 231835Z AUTO 17006G14KT 10SM CLR 17/M04 A3006 RMK AO2 T01661043
KHRX 231815Z AUTO 00000KT 10SM CLR 15/M03 A3007 RMK AO2 T01491035
KHRX 231755Z AUTO 18004KT 10SM CLR 14/M03 A3008 RMK AO2 T01401032 10140 21024
KHRX 231735Z AUTO 12003KT 7SM CLR 13/M03 A3009 RMK AO2 T01251028
KHRX 231715Z AUTO 12004KT 10SM CLR 11/M02 A3009 RMK AO2 T01121023
KHRX 231655Z AUTO 12004KT 10SM CLR 09/M01 A3010 RMK AO2 T00911009
KHRX 231635Z AUTO 00000KT 10SM CLR 06/M01 A3010 RMK AO2 T00631015
KHRX 231615Z AUTO 00000KT 10SM CLR 04/M02 A3011 RMK AO2 T00421016
KHRX 231555Z AUTO 00000KT 10SM CLR 03/M02 A3011 RMK AO2 LTG DSNT E T00281020
KHRX 231535Z AUTO 02003KT 10SM CLR 02/M02 A3012 RMK AO2 T00171024
KHRX 231515Z AUTO 33003KT 10SM CLR 01/M02 A3012 RMK AO2 T00111023
KHRX 231455Z AUTO 00000KT 10SM CLR 00/M02 A3012 RMK AO2 LTG DSNT SE T00021024
KHRX 231435Z AUTO 00000KT 10SM CLR M01/M03 A3012 RMK AO2 T10071029
KHRX 231415Z AUTO 00000KT 10SM CLR M01/M04 A3012 RMK AO2 T10091038
KHRX 231355Z AUTO 00000KT 10SM CLR M01/M04 A3011 RMK AO2 T10141044
KHRX 231335Z AUTO 20004KT 10SM CLR M02/M05 A3011 RMK AO2 T10201047
KHRX 231315Z AUTO 21005KT 10SM CLR 00/M04 A3012 RMK AO2 T10031044
KHRX 231255Z AUTO 23005KT 10SM CLR M01/M04 A3010 RMK AO2 T10071041
KHRX 231235Z AUTO 20006KT 10SM CLR M02/M04 A3009 RMK AO2 T10211045
KHRX 231215Z AUTO 00000KT 10SM CLR M01/M04 A3009 RMK AO2 T10121045
KHRX 231155Z AUTO 22005KT 10SM CLR 00/M04 A3007 RMK AO2 T00001036 10025 21037